Time;durP1;ratioP1;P1;durP2;ratioP2;P2;SDS_P1;SDS_P2;PMS_P1;PMS_P2;Temp;Humidity;BMP_temperature;BMP_pressure;BME280_temperature;BME280_humidity;BME280_pressure;Samples;Min_cycle;Max_cycle;Signal;HPM_P1;HPM_P2
2022/09/27 00:01:11;;;;;;;8.55;4.85;;;;;;;;;;6121740;23;20262;-91
2022/09/27 00:04:16;;;;;;;13.30;4.78;;;;;;;;;;6121055;23;20180;-91
2022/09/27 00:07:21;;;;;;;6.68;4.38;;;;;;;;;;6122163;23;20197;-90
2022/09/27 00:10:27;;;;;;;8.50;4.75;;;;;;;;;;6122747;23;20173;-91
2022/09/27 00:13:34;;;;;;;11.38;5.38;;;;;;;;;;6120219;23;20292;-90
2022/09/27 00:16:40;;;;;;;10.02;5.20;;;;;;;;;;6108759;23;20225;-91
2022/09/27 00:19:45;;;;;;;9.25;5.00;;;;;;;;;;6107351;23;20229;-91
2022/09/27 00:22:51;;;;;;;8.23;5.32;;;;;;;;;;6109477;23;20207;-91
2022/09/27 00:25:57;;;;;;;8.65;4.88;;;;;;;;;;6108028;23;20165;-91
2022/09/27 00:29:09;;;;;;;13.30;4.80;;;;;;;;;;6111460;23;20177;-90
2022/09/27 01:22:43;;;;;;;15.75;5.38;;;;;;;;;;6047737;23;20216;-90
2022/09/27 01:25:54;;;;;;;8.20;4.00;;;;;;;;;;6047243;23;20615;-91
2022/09/27 01:29:05;;;;;;;8.60;4.20;;;;;;;;;;6047571;23;20222;-92
2022/09/27 01:32:17;;;;;;;7.35;3.97;;;;;;;;;;6047822;23;20231;-92
2022/09/27 01:35:28;;;;;;;5.20;3.50;;;;;;;;;;6048801;23;20167;-91
2022/09/27 01:38:40;;;;;;;6.65;3.45;;;;;;;;;;6049093;23;20327;-91
2022/09/27 01:41:52;;;;;;;5.10;3.38;;;;;;;;;;6049463;23;20312;-90
2022/09/27 01:45:10;;;;;;;5.78;3.55;;;;;;;;;;6048103;23;20239;-90
2022/09/27 01:48:31;;;;;;;6.88;3.50;;;;;;;;;;6049655;23;20159;-90
2022/09/27 01:51:44;;;;;;;12.10;3.80;;;;;;;;;;6049419;23;20175;-91
2022/09/27 01:54:52;;;;;;;9.55;3.30;;;;;;;;;;6050224;23;20207;-90
2022/09/27 01:58:09;;;;;;;6.25;3.28;;;;;;;;;;6050102;23;20218;-91
2022/09/27 02:01:15;;;;;;;7.68;3.05;;;;;;;;;;6048865;23;20188;-90
2022/09/27 02:04:22;;;;;;;9.45;3.53;;;;;;;;;;6049152;23;20166;-91
2022/09/27 02:07:48;;;;;;;6.10;2.92;;;;;;;;;;6049757;23;20175;-90
2022/09/27 02:10:55;;;;;;;5.60;3.30;;;;;;;;;;6046214;23;20168;-91
2022/09/27 02:14:03;;;;;;;9.05;4.40;;;;;;;;;;6047953;23;20226;-90
2022/09/27 02:17:24;;;;;;;15.93;6.60;;;;;;;;;;6049457;23;20164;-90
2022/09/27 02:20:34;;;;;;;14.85;6.55;;;;;;;;;;6046543;23;20191;-90
2022/09/27 02:23:41;;;;;;;19.27;7.57;;;;;;;;;;6032381;23;20181;-89
2022/09/27 02:26:53;;;;;;;18.00;7.40;;;;;;;;;;6032371;23;20219;-90
2022/09/27 02:30:00;;;;;;;13.18;6.47;;;;;;;;;;6029826;23;20175;-90
2022/09/27 02:33:05;;;;;;;13.35;6.65;;;;;;;;;;6030785;23;20232;-90
2022/09/27 02:36:12;;;;;;;14.63;6.47;;;;;;;;;;6031018;23;20174;-91
2022/09/27 02:39:19;;;;;;;15.30;6.55;;;;;;;;;;6030134;23;20171;-91
2022/09/27 02:42:28;;;;;;;14.38;6.00;;;;;;;;;;6046612;23;20489;-91
2022/09/27 02:45:38;;;;;;;13.05;5.28;;;;;;;;;;6030071;23;20171;-90
2022/09/27 02:48:48;;;;;;;14.30;5.47;;;;;;;;;;6030440;23;20175;-90
2022/09/27 02:51:57;;;;;;;9.73;4.38;;;;;;;;;;6046135;23;20176;-90
2022/09/27 02:55:08;;;;;;;13.73;5.25;;;;;;;;;;6030009;23;20184;-90
2022/09/27 02:58:36;;;;;;;11.80;5.28;;;;;;;;;;6030547;23;20175;-90
2022/09/27 03:02:07;;;;;;;7.25;4.18;;;;;;;;;;6028950;23;20187;-90
2022/09/27 03:05:27;;;;;;;8.95;3.63;;;;;;;;;;6031083;23;20237;-89
2022/09/27 03:08:33;;;;;;;6.72;3.45;;;;;;;;;;6031796;23;20250;-89
2022/09/27 03:11:39;;;;;;;12.85;3.20;;;;;;;;;;6031602;23;20174;-89
2022/09/27 03:14:44;;;;;;;6.57;3.30;;;;;;;;;;6030805;23;20275;-89
2022/09/27 03:18:09;;;;;;;7.28;3.60;;;;;;;;;;6050432;23;20216;-90
2022/09/27 03:21:14;;;;;;;10.32;4.00;;;;;;;;;;6071904;23;20622;-91
2022/09/27 03:24:21;;;;;;;8.02;3.28;;;;;;;;;;6061998;23;20162;-90
2022/09/27 03:27:27;;;;;;;9.27;3.22;;;;;;;;;;6062734;23;20240;-90
2022/09/27 03:30:33;;;;;;;6.55;3.00;;;;;;;;;;6061674;23;20175;-90
2022/09/27 03:33:42;;;;;;;5.75;3.15;;;;;;;;;;6077997;23;20197;-91
2022/09/27 03:36:49;;;;;;;13.43;4.90;;;;;;;;;;6061783;23;20484;-90
2022/09/27 03:39:55;;;;;;;5.75;3.15;;;;;;;;;;6061347;23;20249;-90
2022/09/27 03:43:01;;;;;;;8.48;3.15;;;;;;;;;;6061446;23;20174;-92
2022/09/27 03:46:07;;;;;;;9.00;3.22;;;;;;;;;;6059854;23;20170;-92
2022/09/27 03:49:12;;;;;;;11.35;4.00;;;;;;;;;;6061206;23;20194;-91
2022/09/27 03:52:17;;;;;;;6.82;3.72;;;;;;;;;;6061345;23;20246;-92
2022/09/27 03:55:24;;;;;;;6.45;3.25;;;;;;;;;;6061144;23;20190;-91
2022/09/27 03:58:29;;;;;;;7.20;3.88;;;;;;;;;;6060869;23;20173;-91
2022/09/27 04:05:48;;;;;;;9.40;3.90;;;;;;;;;;6078467;23;20154;-91
2022/09/27 04:08:57;;;;;;;9.80;3.80;;;;;;;;;;6061015;23;20171;-91
2022/09/27 04:12:13;;;;;;;7.80;3.85;;;;;;;;;;6062499;23;20517;-91
2022/09/27 04:15:18;;;;;;;10.05;4.15;;;;;;;;;;6062659;23;20200;-91
2022/09/27 04:18:29;;;;;;;9.30;3.78;;;;;;;;;;6080513;23;20349;-92
2022/09/27 04:21:48;;;;;;;11.40;4.05;;;;;;;;;;6081334;23;20182;-91
2022/09/27 04:24:55;;;;;;;8.85;4.38;;;;;;;;;;6064970;23;20215;-91
2022/09/27 04:28:08;;;;;;;7.43;4.05;;;;;;;;;;6062582;23;20183;-91
2022/09/27 04:31:13;;;;;;;7.05;4.13;;;;;;;;;;6063595;23;20284;-90
2022/09/27 04:38:00;;;;;;;7.80;4.50;;;;;;;;;;6063350;23;20206;-91
2022/09/27 04:41:06;;;;;;;10.07;4.10;;;;;;;;;;6062107;23;20191;-91
2022/09/27 04:44:16;;;;;;;9.75;4.10;;;;;;;;;;6062616;23;20181;-90
2022/09/27 04:47:25;;;;;;;7.93;3.30;;;;;;;;;;6062604;23;20254;-89
2022/09/27 04:50:31;;;;;;;8.10;3.10;;;;;;;;;;6064581;23;20162;-90
2022/09/27 04:53:42;;;;;;;6.85;3.33;;;;;;;;;;6064047;23;20198;-91
2022/09/27 04:56:48;;;;;;;5.05;3.00;;;;;;;;;;6062419;23;20180;-91
2022/09/27 04:59:55;;;;;;;5.85;3.42;;;;;;;;;;6063766;23;20166;-90
2022/09/27 05:03:01;;;;;;;7.25;2.85;;;;;;;;;;6062192;23;20170;-91
2022/09/27 05:06:20;;;;;;;5.32;2.85;;;;;;;;;;6065172;23;20223;-90
2022/09/27 05:09:25;;;;;;;6.47;3.17;;;;;;;;;;6063307;23;20175;-90
2022/09/27 05:12:34;;;;;;;4.88;2.45;;;;;;;;;;6062735;23;20174;-90
2022/09/27 05:15:42;;;;;;;3.05;1.98;;;;;;;;;;6082124;23;20166;-91
2022/09/27 05:19:24;;;;;;;6.65;2.17;;;;;;;;;;6084580;23;20214;-90
2022/09/27 05:22:48;;;;;;;7.45;2.35;;;;;;;;;;6081985;23;20174;-93
2022/09/27 05:25:55;;;;;;;5.22;2.20;;;;;;;;;;6063601;23;20186;-91
2022/09/27 05:29:00;;;;;;;5.78;2.03;;;;;;;;;;6079516;23;20174;-91
2022/09/27 05:32:09;;;;;;;4.88;2.25;;;;;;;;;;6081078;23;20198;-91
2022/09/27 05:35:26;;;;;;;4.68;2.30;;;;;;;;;;6065248;23;20246;-93
2022/09/27 05:38:34;;;;;;;4.55;2.40;;;;;;;;;;6066736;23;20234;-93
2022/09/27 05:41:53;;;;;;;5.25;2.70;;;;;;;;;;6066285;23;20211;-92
2022/09/27 05:44:58;;;;;;;6.65;2.72;;;;;;;;;;6065577;23;20232;-90
2022/09/27 05:48:11;;;;;;;6.57;3.55;;;;;;;;;;6065765;23;20199;-91
2022/09/27 05:51:24;;;;;;;6.95;3.20;;;;;;;;;;6067509;23;20208;-92
2022/09/27 05:54:30;;;;;;;8.38;3.70;;;;;;;;;;6065599;23;20198;-91
